Time;durP1;ratioP1;P1;durP2;ratioP2;P2;SDS_P1;SDS_P2;PMS_P1;PMS_P2;Temp;Humidity;BMP_temperature;BMP_pressure;BME280_temperature;BME280_humidity;BME280_pressure;Samples;Min_cycle;Max_cycle;Signal;HPM_P1;HPM_P2
2023/04/09 00:02:14;;;;;;;10.70;2.55;;;2.80;99.90;;;;;;5046957;28;20052;-78
2023/04/09 00:04:43;;;;;;;5.55;1.77;;;2.80;99.90;;;;;;5048840;28;20045;-79
2023/04/09 00:07:10;;;;;;;3.17;1.45;;;2.80;99.90;;;;;;5048984;28;20049;-79
2023/04/09 00:09:38;;;;;;;4.45;1.70;;;2.90;99.90;;;;;;5047640;28;20049;-79
2023/04/09 00:12:05;;;;;;;5.18;1.88;;;2.80;99.90;;;;;;5047236;28;20045;-78
2023/04/09 00:14:33;;;;;;;3.60;1.90;;;2.90;99.90;;;;;;5051233;28;20103;-79
2023/04/09 00:17:00;;;;;;;10.80;1.90;;;2.90;99.90;;;;;;5048753;28;20143;-79
2023/04/09 00:19:33;;;;;;;8.80;2.15;;;2.80;99.90;;;;;;5046709;28;20043;-78
2023/04/09 00:22:01;;;;;;;4.28;2.20;;;2.80;99.90;;;;;;5049303;28;20102;-80
2023/04/09 00:24:29;;;;;;;6.97;2.08;;;2.80;99.90;;;;;;5027837;28;20416;-78
2023/04/09 00:26:56;;;;;;;16.00;2.42;;;2.80;99.90;;;;;;5050389;28;20068;-79
2023/04/09 00:29:23;;;;;;;4.20;1.80;;;2.80;99.90;;;;;;5048302;28;20045;-79
2023/04/09 00:31:51;;;;;;;4.72;1.88;;;2.80;99.90;;;;;;5050029;28;20049;-79
2023/04/09 00:34:20;;;;;;;6.85;2.08;;;2.90;99.90;;;;;;5047414;28;20059;-78
2023/04/09 00:36:47;;;;;;;4.50;1.92;;;3.00;99.90;;;;;;5026553;28;20493;-79
2023/04/09 00:39:16;;;;;;;5.15;1.98;;;3.00;99.90;;;;;;5049377;28;20056;-80
2023/04/09 00:41:44;;;;;;;3.08;1.45;;;3.00;99.90;;;;;;5050317;28;20067;-80
2023/04/09 00:44:11;;;;;;;6.40;2.45;;;3.00;99.90;;;;;;5047892;28;20060;-79
2023/04/09 00:46:38;;;;;;;5.45;1.80;;;3.00;99.90;;;;;;5044059;28;20549;-78
2023/04/09 00:49:06;;;;;;;6.07;1.67;;;3.00;99.90;;;;;;5045486;28;20057;-78
2023/04/09 00:51:34;;;;;;;4.68;2.15;;;3.00;99.90;;;;;;5043416;28;20049;-78
2023/04/09 00:54:02;;;;;;;6.22;1.65;;;2.90;99.90;;;;;;5030777;28;20059;-79
2023/04/09 00:56:31;;;;;;;12.63;2.25;;;2.90;99.90;;;;;;5044722;28;20043;-77
2023/04/09 00:59:00;;;;;;;3.03;1.67;;;2.90;99.90;;;;;;5047086;28;20535;-78
2023/04/09 01:01:27;;;;;;;7.03;2.00;;;2.80;99.90;;;;;;5045816;28;20045;-78
2023/04/09 01:03:55;;;;;;;8.73;1.90;;;2.80;99.90;;;;;;5041206;28;20144;-79
2023/04/09 01:06:30;;;;;;;5.72;2.00;;;2.80;99.90;;;;;;5043459;28;20526;-79
2023/04/09 01:09:08;;;;;;;2.75;1.80;;;2.80;99.90;;;;;;5046983;28;20567;-78
2023/04/09 01:11:44;;;;;;;7.22;1.85;;;2.80;99.90;;;;;;5032191;28;20064;-78
2023/04/09 01:14:22;;;;;;;4.22;1.83;;;2.70;99.90;;;;;;5045532;28;20056;-79
2023/04/09 01:16:57;;;;;;;6.65;1.83;;;2.70;99.90;;;;;;5031989;28;20148;-79
2023/04/09 01:19:44;;;;;;;8.10;2.45;;;2.70;99.90;;;;;;5040012;28;20140;-79
2023/04/09 01:22:31;;;;;;;14.32;2.78;;;2.60;99.90;;;;;;5047118;28;20644;-79
2023/04/09 01:25:07;;;;;;;3.83;1.92;;;2.60;99.90;;;;;;5047282;28;20138;-78
2023/04/09 01:28:18;;;;;;;4.93;2.50;;;2.50;99.90;;;;;;5027276;28;20148;-78
2023/04/09 01:30:51;;;;;;;3.00;1.50;;;2.40;99.90;;;;;;5027904;28;20536;-78
2023/04/09 01:33:20;;;;;;;9.38;2.08;;;2.40;99.90;;;;;;5042917;28;20369;-78
2023/04/09 01:35:49;;;;;;;5.13;1.50;;;2.40;99.90;;;;;;5031209;28;20037;-77
2023/04/09 01:38:20;;;;;;;12.60;2.33;;;2.40;99.90;;;;;;5048137;28;20159;-77
2023/04/09 01:40:49;;;;;;;3.22;1.63;;;2.40;99.90;;;;;;5036818;28;20046;-73
2023/04/09 01:43:18;;;;;;;4.43;1.70;;;2.40;99.90;;;;;;5048787;28;20413;-73
2023/04/09 01:45:46;;;;;;;9.63;2.00;;;2.40;99.90;;;;;;5027649;28;20121;-74
2023/04/09 01:48:14;;;;;;;5.45;2.35;;;2.40;99.90;;;;;;5053402;28;20081;-74
2023/04/09 01:50:41;;;;;;;4.93;1.80;;;2.40;99.90;;;;;;5050307;28;20055;-71
2023/04/09 01:53:09;;;;;;;8.27;2.30;;;2.40;99.90;;;;;;5047151;28;20091;-76
2023/04/09 01:55:36;;;;;;;5.38;2.17;;;2.40;99.90;;;;;;5042879;28;20160;-74
2023/04/09 01:58:04;;;;;;;6.93;2.15;;;2.40;99.90;;;;;;5041970;28;20132;-74
2023/04/09 02:00:39;;;;;;;7.65;2.60;;;2.40;99.90;;;;;;5049402;28;20053;-74
2023/04/09 02:03:11;;;;;;;4.68;1.63;;;2.50;99.90;;;;;;5050696;28;20068;-73
2023/04/09 02:05:44;;;;;;;3.05;1.77;;;2.50;99.90;;;;;;5051656;28;20056;-78
2023/04/09 02:08:16;;;;;;;4.68;1.73;;;2.50;99.90;;;;;;5048728;28;20136;-78
2023/04/09 02:10:52;;;;;;;5.68;1.58;;;2.50;99.90;;;;;;5050974;28;20068;-77
2023/04/09 02:13:20;;;;;;;3.08;1.95;;;2.40;99.90;;;;;;5051399;28;20095;-76
2023/04/09 02:15:50;;;;;;;4.55;1.85;;;2.40;99.90;;;;;;5051947;28;20129;-78
2023/04/09 02:18:23;;;;;;;7.43;1.73;;;2.40;99.90;;;;;;5024347;28;20041;-78
2023/04/09 02:20:53;;;;;;;3.97;1.73;;;2.40;99.90;;;;;;5050703;28;20057;-77
2023/04/09 02:23:20;;;;;;;4.18;2.22;;;2.40;99.90;;;;;;5051026;28;20071;-77
2023/04/09 02:25:48;;;;;;;2.60;1.58;;;2.40;99.90;;;;;;5043193;28;20049;-77
2023/04/09 02:28:16;;;;;;;3.80;2.20;;;2.40;99.90;;;;;;5043466;28;20049;-78
2023/04/09 02:30:43;;;;;;;5.28;1.50;;;2.30;99.90;;;;;;5046217;28;20136;-78
2023/04/09 02:33:12;;;;;;;4.45;1.83;;;2.40;99.90;;;;;;5030402;28;20519;-78
2023/04/09 02:35:39;;;;;;;11.23;2.20;;;2.40;99.90;;;;;;5047869;28;20124;-79
2023/04/09 02:38:12;;;;;;;6.72;1.90;;;2.30;99.90;;;;;;5039786;28;20057;-77
2023/04/09 02:40:40;;;;;;;5.38;2.10;;;2.30;99.90;;;;;;5044959;28;20061;-78
2023/04/09 02:43:08;;;;;;;11.75;1.65;;;2.30;99.90;;;;;;5037202;28;20043;-78
2023/04/09 02:45:36;;;;;;;11.02;1.80;;;2.30;99.90;;;;;;5049203;28;20140;-78
2023/04/09 02:48:04;;;;;;;6.15;1.77;;;2.30;99.90;;;;;;5024938;28;20448;-78
2023/04/09 02:50:36;;;;;;;10.07;2.10;;;2.30;99.90;;;;;;5049093;28;20037;-78
2023/04/09 02:53:04;;;;;;;5.60;2.03;;;2.30;99.90;;;;;;5051009;28;20049;-77
2023/04/09 02:55:31;;;;;;;3.45;1.70;;;2.30;99.90;;;;;;5049340;28;20394;-78
2023/04/09 02:57:59;;;;;;;7.53;2.03;;;2.30;99.90;;;;;;5048049;28;20136;-78
2023/04/09 03:00:26;;;;;;;6.10;2.00;;;2.30;99.90;;;;;;5037058;28;20053;-77
2023/04/09 03:02:57;;;;;;;6.55;1.75;;;2.20;99.90;;;;;;5045177;28;20045;-78
2023/04/09 03:05:25;;;;;;;4.70;1.90;;;2.30;99.90;;;;;;5052084;28;20513;-78
2023/04/09 03:07:54;;;;;;;6.45;1.58;;;2.30;99.90;;;;;;5050774;28;20056;-80
2023/04/09 03:10:22;;;;;;;2.53;1.30;;;2.20;99.90;;;;;;5049128;28;20056;-79
2023/04/09 03:12:49;;;;;;;7.18;1.42;;;2.30;99.90;;;;;;5048107;28;20059;-79
2023/04/09 03:15:17;;;;;;;10.10;1.67;;;2.20;99.90;;;;;;5051435;28;20059;-80
2023/04/09 03:17:44;;;;;;;3.97;1.77;;;2.30;99.90;;;;;;5045496;28;20045;-78
2023/04/09 03:20:12;;;;;;;5.47;1.75;;;2.30;99.90;;;;;;5028328;28;20049;-78
2023/04/09 03:22:39;;;;;;;6.65;1.80;;;2.30;99.90;;;;;;5034432;28;20060;-80
2023/04/09 03:25:23;;;;;;;7.07;1.60;;;2.30;99.90;;;;;;5046077;28;20052;-78
2023/04/09 03:27:54;;;;;;;12.10;2.17;;;2.30;99.90;;;;;;5018338;28;20156;-80
2023/04/09 03:30:32;;;;;;;7.70;2.17;;;2.30;99.90;;;;;;5055522;28;20060;-78
2023/04/09 03:33:01;;;;;;;6.10;2.10;;;2.30;99.90;;;;;;5046559;28;20056;-78
2023/04/09 03:35:32;;;;;;;14.35;3.05;;;2.30;99.90;;;;;;5028627;28;20057;-79
2023/04/09 03:38:01;;;;;;;4.85;2.53;;;2.30;99.90;;;;;;5029805;28;20049;-78
2023/04/09 03:40:31;;;;;;;12.15;2.67;;;2.30;99.90;;;;;;5045120;28;20056;-79
2023/04/09 03:42:59;;;;;;;9.35;2.17;;;2.40;99.90;;;;;;5048974;28;20429;-80
2023/04/09 03:45:26;;;;;;;5.85;2.15;;;2.40;99.90;;;;;;5030345;28;20400;-80
2023/04/09 03:47:57;;;;;;;4.00;2.30;;;2.40;99.90;;;;;;5047686;28;20130;-79
2023/04/09 03:50:25;;;;;;;11.55;2.28;;;2.50;99.90;;;;;;5048067;28;20588;-77
2023/04/09 03:52:55;;;;;;;9.75;2.08;;;2.50;99.90;;;;;;5048227;28;20458;-78
2023/04/09 03:55:23;;;;;;;6.45;2.35;;;2.50;99.90;;;;;;5048681;28;20063;-80
2023/04/09 03:57:53;;;;;;;7.20;2.70;;;2.50;99.90;;;;;;5031955;28;20103;-79
2023/04/09 04:00:27;;;;;;;11.65;2.53;;;2.50;99.90;;;;;;5030330;28;20049;-81
2023/04/09 04:03:15;;;;;;;9.48;2.72;;;2.40;99.90;;;;;;5033099;28;20049;-79
2023/04/09 04:06:06;;;;;;;3.90;1.85;;;2.40;99.90;;;;;;5048366;28;20103;-79
2023/04/09 04:08:55;;;;;;;9.75;2.15;;;2.40;99.90;;;;;;5034427;28;20517;-80
2023/04/09 04:11:31;;;;;;;5.75;2.17;;;2.40;99.90;;;;;;5033913;28;20116;-79
2023/04/09 04:14:01;;;;;;;4.68;2.20;;;2.40;99.90;;;;;;5047574;28;20528;-79
2023/04/09 04:16:29;;;;;;;7.85;2.35;;;2.40;99.90;;;;;;5047400;28;20068;-77
2023/04/09 04:18:57;;;;;;;8.82;3.50;;;2.40;99.90;;;;;;5048670;28;20543;-79
2023/04/09 04:21:24;;;;;;;10.13;2.80;;;2.40;99.90;;;;;;5047528;28;20049;-78
2023/04/09 04:23:59;;;;;;;13.63;3.22;;;2.40;99.90;;;;;;5048380;28;20041;-78
2023/04/09 04:26:29;;;;;;;11.60;3.33;;;2.50;99.90;;;;;;5031750;28;20057;-78
2023/04/09 04:28:57;;;;;;;11.30;2.80;;;2.50;99.90;;;;;;5046899;28;20285;-79
2023/04/09 04:31:46;;;;;;;8.23;2.95;;;2.50;99.90;;;;;;5047516;28;20077;-78
2023/04/09 04:34:16;;;;;;;8.00;2.47;;;2.50;99.90;;;;;;5047057;28;20094;-73
2023/04/09 04:36:47;;;;;;;11.25;2.35;;;2.60;99.90;;;;;;5023977;28;20056;-74
2023/04/09 04:39:15;;;;;;;8.27;2.55;;;2.60;99.90;;;;;;5031661;28;20045;-74
2023/04/09 04:41:51;;;;;;;3.25;2.20;;;2.70;99.90;;;;;;5047941;28;20051;-79
2023/04/09 04:44:23;;;;;;;3.63;1.85;;;2.70;99.90;;;;;;5045026;28;20095;-75
2023/04/09 04:46:58;;;;;;;6.70;2.50;;;2.80;99.90;;;;;;5027279;28;20057;-75
2023/04/09 04:49:25;;;;;;;4.15;1.80;;;2.80;99.90;;;;;;5032971;28;20091;-74
2023/04/09 04:51:53;;;;;;;5.18;1.60;;;2.90;99.90;;;;;;5049375;28;20051;-73
2023/04/09 04:54:20;;;;;;;6.95;2.35;;;2.90;99.90;;;;;;5031119;28;20513;-74
2023/04/09 04:56:52;;;;;;;8.65;3.15;;;3.00;99.90;;;;;;5031043;28;20473;-75
2023/04/09 04:59:40;;;;;;;9.00;2.00;;;3.10;99.90;;;;;;5028689;28;20513;-74
2023/04/09 05:02:12;;;;;;;5.85;2.45;;;3.10;99.90;;;;;;5046280;28;20057;-79
2023/04/09 05:04:53;;;;;;;9.50;2.20;;;3.20;99.90;;;;;;5028754;28;20060;-74
2023/04/09 05:07:28;;;;;;;6.47;2.33;;;3.20;99.90;;;;;;5038707;28;20053;-74
2023/04/09 05:09:58;;;;;;;7.18;3.00;;;3.30;99.90;;;;;;5031628;28;20079;-74
2023/04/09 05:12:25;;;;;;;8.57;2.22;;;3.40;99.90;;;;;;5047433;28;20509;-73
2023/04/09 05:14:55;;;;;;;19.30;2.80;;;3.40;99.90;;;;;;5049778;28;20059;-74
2023/04/09 05:17:24;;;;;;;6.60;2.50;;;3.60;99.90;;;;;;5030858;28;20103;-76
2023/04/09 05:19:53;;;;;;;13.55;2.63;;;3.60;99.90;;;;;;5047221;28;20055;-73
2023/04/09 05:22:26;;;;;;;7.68;1.85;;;3.70;99.90;;;;;;5033697;28;20045;-74
2023/04/09 05:24:53;;;;;;;12.00;2.03;;;3.80;99.90;;;;;;5020480;28;20037;-75
2023/04/09 05:27:23;;;;;;;13.73;3.55;;;3.90;99.90;;;;;;5050707;28;20060;-75
2023/04/09 05:29:55;;;;;;;8.55;2.65;;;3.90;99.90;;;;;;5030699;28;20568;-79
2023/04/09 05:32:34;;;;;;;8.13;2.15;;;4.00;99.90;;;;;;5026784;28;20053;-81
2023/04/09 05:35:10;;;;;;;8.93;2.55;;;4.00;99.90;;;;;;5056568;28;20076;-79
2023/04/09 05:37:47;;;;;;;11.15;3.70;;;4.10;99.90;;;;;;5059457;28;20060;-75
2023/04/09 05:40:15;;;;;;;16.25;2.90;;;4.20;99.90;;;;;;5050789;28;20049;-80
2023/04/09 05:42:43;;;;;;;6.53;2.33;;;4.30;99.90;;;;;;5035692;28;20052;-82
2023/04/09 05:45:16;;;;;;;6.90;2.28;;;4.40;99.90;;;;;;5035861;28;20084;-79
2023/04/09 05:47:54;;;;;;;5.15;2.55;;;4.60;99.90;;;;;;5051413;28;20041;-80
2023/04/09 05:50:23;;;;;;;5.32;2.00;;;5.00;99.90;;;;;;5046479;28;20150;-79
2023/04/09 05:52:54;;;;;;;9.30;2.38;;;5.70;99.90;;;;;;5034175;28;20045;-79
2023/04/09 05:55:22;;;;;;;21.63;2.72;;;6.50;99.90;;;;;;5047885;28;20136;-79
2023/04/09 05:58:00;;;;;;;10.93;2.72;;;7.40;99.90;;;;;;5041581;28;20064;-80
2023/04/09 06:00:27;;;;;;;10.75;3.15;;;8.20;99.90;;;;;;5053684;28;20052;-82
2023/04/09 06:02:57;;;;;;;11.48;2.67;;;9.00;99.90;;;;;;5049931;28;20513;-75
2023/04/09 06:05:24;;;;;;;11.13;3.28;;;9.70;96.40;;;;;;5050406;28;20513;-73
2023/04/09 06:07:52;;;;;;;10.07;2.60;;;10.30;92.80;;;;;;5042347;28;20043;-75
2023/04/09 06:10:34;;;;;;;11.05;2.80;;;10.80;89.00;;;;;;5021526;28;20053;-73
2023/04/09 06:13:07;;;;;;;8.43;2.60;;;11.30;85.20;;;;;;5050481;28;20513;-75
2023/04/09 06:15:38;;;;;;;16.85;3.35;;;11.80;81.30;;;;;;5050287;28;20056;-74
2023/04/09 06:18:11;;;;;;;10.52;3.03;;;12.20;78.50;;;;;;5038284;28;20049;-74
2023/04/09 06:20:39;;;;;;;12.68;2.60;;;12.70;75.30;;;;;;5029827;28;20056;-76
2023/04/09 06:23:07;;;;;;;14.50;3.50;;;13.10;72.70;;;;;;5041165;28;20045;-77
2023/04/09 06:25:36;;;;;;;9.55;3.30;;;13.40;70.80;;;;;;5049293;28;20466;-79
2023/04/09 06:28:03;;;;;;;12.30;2.97;;;13.70;68.40;;;;;;5048565;28;20037;-78
2023/04/09 06:30:31;;;;;;;16.80;2.67;;;14.10;67.30;;;;;;5035848;28;20071;-78
2023/04/09 06:32:59;;;;;;;10.48;2.72;;;14.50;64.90;;;;;;5036125;28;20513;-78
2023/04/09 06:35:28;;;;;;;11.93;2.42;;;14.70;62.60;;;;;;5049873;28;20050;-78
2023/04/09 06:37:58;;;;;;;14.15;2.90;;;15.00;62.10;;;;;;5046400;28;20076;-79
2023/04/09 06:40:25;;;;;;;11.35;3.40;;;15.40;60.20;;;;;;5044339;28;20049;-78
2023/04/09 06:42:53;;;;;;;6.03;2.30;;;15.70;58.80;;;;;;5031288;28;20099;-79
2023/04/09 06:45:27;;;;;;;9.80;2.20;;;15.90;57.90;;;;;;5040414;28;20064;-79
2023/04/09 06:47:54;;;;;;;11.57;2.60;;;16.10;56.70;;;;;;5046129;28;20053;-78
2023/04/09 06:50:22;;;;;;;8.23;2.22;;;16.20;56.20;;;;;;5051652;28;20154;-78
2023/04/09 06:52:52;;;;;;;10.30;5.65;;;16.40;55.70;;;;;;5027035;28;20049;-77
2023/04/09 06:55:20;;;;;;;6.65;2.78;;;16.50;55.10;;;;;;5048258;28;20464;-79
2023/04/09 06:57:48;;;;;;;6.65;3.15;;;16.70;54.70;;;;;;5045206;28;20056;-77
2023/04/09 07:00:16;;;;;;;13.93;3.00;;;16.80;54.20;;;;;;5042823;28;20052;-82
2023/04/09 07:02:44;;;;;;;7.82;2.80;;;17.00;53.70;;;;;;5044727;28;20041;-81
2023/04/09 07:05:11;;;;;;;9.15;3.22;;;17.30;53.00;;;;;;5045100;28;20045;-78
2023/04/09 07:07:50;;;;;;;12.15;2.65;;;17.40;53.10;;;;;;5046598;28;20368;-81
2023/04/09 07:10:19;;;;;;;9.05;2.50;;;17.50;52.40;;;;;;5061616;28;20231;-80
2023/04/09 07:12:47;;;;;;;16.85;2.95;;;17.90;51.70;;;;;;5050198;28;20041;-78
2023/04/09 07:15:15;;;;;;;12.15;2.75;;;18.10;51.80;;;;;;5041947;28;20041;-79
2023/04/09 07:17:42;;;;;;;13.20;5.03;;;18.50;50.50;;;;;;5046165;28;20045;-77
2023/04/09 07:20:11;;;;;;;12.88;3.15;;;18.70;50.00;;;;;;5045621;28;20045;-77
2023/04/09 07:22:39;;;;;;;13.68;2.67;;;18.80;49.60;;;;;;5045568;28;20041;-79
2023/04/09 07:25:08;;;;;;;5.57;2.40;;;19.10;48.90;;;;;;5047295;28;20075;-79
2023/04/09 07:27:37;;;;;;;7.22;2.25;;;19.30;48.80;;;;;;5050286;28;20508;-80
2023/04/09 07:30:09;;;;;;;7.43;2.50;;;19.60;47.70;;;;;;5051191;28;20418;-81
2023/04/09 07:32:37;;;;;;;10.27;2.33;;;19.80;47.30;;;;;;5044649;28;20041;-82
2023/04/09 07:35:08;;;;;;;4.05;2.08;;;20.10;47.00;;;;;;5044786;28;20231;-78
2023/04/09 07:37:36;;;;;;;4.65;2.35;;;20.40;46.40;;;;;;5027791;28;20143;-77
2023/04/09 07:40:04;;;;;;;7.30;4.30;;;20.50;45.70;;;;;;5049498;28;20048;-78
2023/04/09 07:42:32;;;;;;;8.77;2.38;;;20.70;45.70;;;;;;5047761;28;20044;-80
2023/04/09 07:45:02;;;;;;;11.07;3.13;;;20.80;45.10;;;;;;5050328;28;20053;-78
2023/04/09 07:47:30;;;;;;;8.80;3.40;;;21.00;44.80;;;;;;5049772;28;20423;-78
2023/04/09 07:49:58;;;;;;;8.82;3.00;;;21.20;44.50;;;;;;5039751;28;20213;-81
2023/04/09 07:52:25;;;;;;;7.60;3.33;;;21.40;44.00;;;;;;5037557;28;20041;-79
2023/04/09 07:54:53;;;;;;;14.57;2.78;;;21.60;43.70;;;;;;5038946;28;20037;-80
2023/04/09 07:57:20;;;;;;;4.45;2.38;;;21.60;43.20;;;;;;5048505;28;20608;-78
2023/04/09 07:59:48;;;;;;;6.85;2.67;;;21.90;42.70;;;;;;5045020;28;20075;-80
2023/04/09 08:02:20;;;;;;;8.18;2.70;;;22.00;42.70;;;;;;5043460;28;20045;-79
2023/04/09 08:04:47;;;;;;;11.85;2.90;;;22.10;42.20;;;;;;5039223;28;20059;-82
2023/04/09 08:07:15;;;;;;;5.32;2.30;;;22.40;41.70;;;;;;5048048;28;20496;-80
2023/04/09 08:09:43;;;;;;;9.32;4.07;;;22.50;41.70;;;;;;5048742;28;20550;-81
2023/04/09 08:12:10;;;;;;;7.78;2.72;;;22.80;42.20;;;;;;5048554;28;20473;-79
2023/04/09 08:14:38;;;;;;;8.18;2.50;;;23.20;42.20;;;;;;5049523;28;20063;-79
2023/04/09 08:17:05;;;;;;;9.05;2.72;;;23.40;41.00;;;;;;5045759;28;20041;-80
2023/04/09 08:19:35;;;;;;;7.18;2.88;;;23.70;40.80;;;;;;5048675;28;20056;-79
2023/04/09 08:22:07;;;;;;;8.73;5.03;;;23.90;40.60;;;;;;5047169;28;20521;-80
2023/04/09 08:24:34;;;;;;;7.45;2.50;;;24.10;40.20;;;;;;5050069;28;20501;-82
2023/04/09 08:27:02;;;;;;;3.10;2.05;;;24.00;40.50;;;;;;5038713;28;20061;-80
2023/04/09 08:29:30;;;;;;;3.22;2.45;;;24.00;39.30;;;;;;5038891;28;20049;-78
2023/04/09 08:31:58;;;;;;;5.75;2.70;;;24.10;39.80;;;;;;5044054;28;20053;-79
2023/04/09 08:34:26;;;;;;;7.00;2.47;;;24.40;39.20;;;;;;5048784;28;20072;-81
2023/04/09 08:36:55;;;;;;;7.05;3.08;;;24.60;39.50;;;;;;5042403;28;20061;-78
2023/04/09 08:39:23;;;;;;;8.93;3.25;;;24.70;39.10;;;;;;5042627;28;20520;-81
2023/04/09 08:41:52;;;;;;;3.78;2.28;;;24.90;39.80;;;;;;5043782;28;20080;-79
2023/04/09 08:44:20;;;;;;;6.32;2.17;;;25.10;38.20;;;;;;5023133;28;20080;-80
2023/04/09 08:46:48;;;;;;;6.78;2.50;;;25.20;38.40;;;;;;5044963;28;20060;-80
2023/04/09 08:49:16;;;;;;;6.10;2.47;;;25.50;38.70;;;;;;5051286;28;20064;-80
2023/04/09 08:51:47;;;;;;;4.82;2.33;;;25.80;38.20;;;;;;5049671;28;20076;-75
2023/04/09 08:54:18;;;;;;;4.70;2.13;;;25.90;37.50;;;;;;5046559;28;20059;-82
2023/04/09 08:56:47;;;;;;;7.65;2.28;;;25.90;37.30;;;;;;5046083;28;20045;-81
2023/04/09 08:59:18;;;;;;;10.18;4.13;;;25.90;37.60;;;;;;5051833;28;20044;-82
2023/04/09 09:01:48;;;;;;;4.50;2.15;;;25.90;37.10;;;;;;5049236;28;20399;-81
2023/04/09 09:04:15;;;;;;;4.93;2.10;;;26.10;37.50;;;;;;5043772;28;20413;-77
2023/04/09 09:06:43;;;;;;;7.43;2.30;;;26.40;37.80;;;;;;5051210;28;20040;-76
2023/04/09 09:09:13;;;;;;;5.60;2.22;;;26.70;37.00;;;;;;5053120;28;20056;-79
2023/04/09 09:11:45;;;;;;;8.30;2.78;;;26.80;36.20;;;;;;5033194;28;20049;-79
2023/04/09 09:14:16;;;;;;;5.03;2.03;;;26.80;36.20;;;;;;5042392;28;20556;-81
2023/04/09 09:17:03;;;;;;;5.65;2.70;;;26.90;36.10;;;;;;5039054;28;20056;-79
2023/04/09 09:19:34;;;;;;;5.57;2.63;;;27.00;37.10;;;;;;5043980;28;20049;-79
2023/04/09 09:22:04;;;;;;;10.45;2.80;;;27.20;37.00;;;;;;5030320;28;20041;-78
2023/04/09 09:24:34;;;;;;;9.32;3.00;;;27.20;36.90;;;;;;5051165;28;20107;-85
2023/04/09 09:27:05;;;;;;;6.93;2.28;;;27.50;36.80;;;;;;5046828;28;20057;-82
2023/04/09 09:29:43;;;;;;;8.10;2.70;;;27.60;36.70;;;;;;5053300;28;20053;-76
2023/04/09 09:32:14;;;;;;;10.40;2.13;;;27.70;36.50;;;;;;5052061;28;20099;-82
2023/04/09 09:34:41;;;;;;;3.60;2.00;;;27.80;36.00;;;;;;5050075;28;20069;-81
2023/04/09 09:37:27;;;;;;;8.80;2.00;;;27.80;35.20;;;;;;5041814;28;20048;-78
2023/04/09 09:39:55;;;;;;;8.85;2.38;;;27.80;35.10;;;;;;5046504;28;20563;-77
2023/04/09 09:42:25;;;;;;;8.98;2.10;;;27.50;34.80;;;;;;5060720;28;20497;-77
2023/04/09 09:44:54;;;;;;;7.00;2.15;;;27.40;34.40;;;;;;5046759;28;20468;-78
2023/04/09 09:47:22;;;;;;;8.20;2.53;;;27.10;34.60;;;;;;5045672;28;20149;-77
2023/04/09 09:49:50;;;;;;;8.25;2.08;;;26.50;34.90;;;;;;5050551;28;20049;-77
2023/04/09 09:52:25;;;;;;;15.27;2.30;;;25.90;35.80;;;;;;5046122;28;20159;-80
2023/04/09 09:54:55;;;;;;;5.82;2.25;;;25.30;37.30;;;;;;5044859;28;20057;-81
2023/04/09 09:57:27;;;;;;;9.25;1.90;;;24.70;38.20;;;;;;5049022;28;20048;-81
2023/04/09 10:00:03;;;;;;;7.43;3.17;;;24.60;38.80;;;;;;5038506;28;20060;-79
2023/04/09 10:02:44;;;;;;;2.42;1.60;;;24.90;38.80;;;;;;5046252;28;20157;-79
2023/04/09 10:05:12;;;;;;;5.28;2.00;;;25.30;35.30;;;;;;5042023;28;20147;-80
2023/04/09 10:07:40;;;;;;;7.75;1.98;;;25.50;35.40;;;;;;5044516;28;20053;-80
2023/04/09 10:10:09;;;;;;;8.23;2.13;;;26.20;36.30;;;;;;5046153;28;20469;-79
2023/04/09 10:12:40;;;;;;;2.63;1.75;;;26.70;35.80;;;;;;5047704;28;20037;-77
2023/04/09 10:15:10;;;;;;;3.72;1.55;;;27.10;35.30;;;;;;5039782;28;20079;-78
2023/04/09 10:17:38;;;;;;;15.05;2.83;;;27.60;35.00;;;;;;5042913;28;20659;-84
2023/04/09 10:20:12;;;;;;;4.82;1.80;;;28.10;34.40;;;;;;5048974;28;20056;-79
2023/04/09 10:22:43;;;;;;;4.50;1.65;;;28.20;33.20;;;;;;5045952;28;20577;-79
2023/04/09 10:25:10;;;;;;;8.02;1.85;;;28.20;35.80;;;;;;5053535;28;20103;-81
2023/04/09 10:27:48;;;;;;;6.75;1.83;;;28.30;33.80;;;;;;5047458;28;20049;-78
2023/04/09 10:30:35;;;;;;;3.13;1.60;;;28.70;34.70;;;;;;5043969;28;20061;-81
2023/04/09 10:33:11;;;;;;;4.68;2.20;;;29.00;34.50;;;;;;5043451;28;20111;-80
2023/04/09 10:35:38;;;;;;;10.15;2.50;;;29.20;33.10;;;;;;5045435;28;20041;-81
2023/04/09 10:38:09;;;;;;;5.68;1.73;;;29.00;32.60;;;;;;5043291;28;20049;-80
2023/04/09 10:40:43;;;;;;;3.45;1.40;;;29.10;33.00;;;;;;5039658;28;20048;-78
2023/04/09 10:43:11;;;;;;;7.18;2.00;;;29.20;33.40;;;;;;5048880;28;20057;-76
2023/04/09 10:45:43;;;;;;;4.97;1.55;;;29.20;31.70;;;;;;5040451;28;20151;-77
2023/04/09 10:48:14;;;;;;;6.82;2.03;;;28.70;32.90;;;;;;5047911;28;20599;-78
2023/04/09 10:50:45;;;;;;;10.13;2.35;;;28.50;33.90;;;;;;5040569;28;20046;-80
2023/04/09 10:53:26;;;;;;;7.93;2.20;;;28.30;33.90;;;;;;5045433;28;20129;-79
2023/04/09 10:55:55;;;;;;;14.73;3.05;;;27.60;33.10;;;;;;5049212;28;20067;-78
2023/04/09 10:58:24;;;;;;;10.23;2.10;;;26.70;34.30;;;;;;5045180;28;20063;-80
2023/04/09 11:00:53;;;;;;;7.55;2.20;;;25.90;33.60;;;;;;5041613;28;20060;-80
2023/04/09 11:03:24;;;;;;;9.35;1.95;;;25.40;34.70;;;;;;5045590;28;20049;-79
2023/04/09 11:05:58;;;;;;;11.77;2.35;;;25.10;36.00;;;;;;5041565;28;20053;-80
2023/04/09 11:08:30;;;;;;;4.78;1.77;;;25.30;35.50;;;;;;5036523;28;20141;-81
2023/04/09 11:10:59;;;;;;;6.83;1.83;;;25.40;34.70;;;;;;5044277;28;20053;-81
2023/04/09 11:13:30;;;;;;;8.00;1.55;;;25.50;35.80;;;;;;5045806;28;20140;-84
2023/04/09 11:15:58;;;;;;;6.18;1.60;;;25.90;34.10;;;;;;5048489;28;20056;-81
2023/04/09 11:18:33;;;;;;;5.15;1.40;;;26.40;34.10;;;;;;5047516;28;20053;-80
2023/04/09 11:21:03;;;;;;;12.75;2.22;;;26.70;33.70;;;;;;5044405;28;20432;-81
2023/04/09 11:23:32;;;;;;;9.45;2.20;;;27.10;34.00;;;;;;5044291;28;20527;-80
2023/04/09 11:26:00;;;;;;;2.67;1.63;;;27.80;33.80;;;;;;5050164;28;20088;-80
2023/04/09 11:28:29;;;;;;;5.97;2.20;;;28.60;33.50;;;;;;5048905;28;20084;-80
2023/04/09 11:30:58;;;;;;;8.98;2.13;;;29.30;33.70;;;;;;5042099;28;20102;-79
2023/04/09 11:33:33;;;;;;;8.05;2.00;;;29.60;31.30;;;;;;5030899;28;20513;-79
2023/04/09 11:36:00;;;;;;;2.78;1.73;;;29.80;31.30;;;;;;5046911;28;20457;-78
2023/04/09 11:38:28;;;;;;;12.07;1.70;;;30.00;30.40;;;;;;5040281;28;20147;-77
2023/04/09 11:40:58;;;;;;;9.77;1.33;;;30.20;31.20;;;;;;5041627;28;20139;-76
2023/04/09 11:43:26;;;;;;;7.80;2.40;;;30.40;32.00;;;;;;5029523;28;20108;-78
2023/04/09 11:45:57;;;;;;;4.22;1.77;;;30.50;32.00;;;;;;5040875;28;20045;-78
2023/04/09 11:48:25;;;;;;;3.78;1.75;;;30.90;30.20;;;;;;5047979;28;20070;-78
2023/04/09 11:50:53;;;;;;;14.98;2.33;;;30.90;29.50;;;;;;5048939;28;20055;-78
2023/04/09 11:53:22;;;;;;;7.75;1.90;;;30.80;29.80;;;;;;5034197;28;20049;-79
2023/04/09 11:55:52;;;;;;;8.68;1.60;;;30.60;29.50;;;;;;5050589;28;20040;-78
2023/04/09 11:58:23;;;;;;;5.88;2.13;;;30.30;29.70;;;;;;5045195;28;20057;-78
2023/04/09 12:00:58;;;;;;;6.82;1.90;;;30.60;30.00;;;;;;5036058;28;20056;-78
2023/04/09 12:03:31;;;;;;;15.52;2.30;;;30.80;29.30;;;;;;5029288;28;20148;-76
2023/04/09 12:06:01;;;;;;;10.43;2.10;;;31.10;30.70;;;;;;5047814;28;20049;-78
2023/04/09 12:08:30;;;;;;;12.50;2.33;;;31.10;30.00;;;;;;5037724;28;20426;-80
2023/04/09 12:10:57;;;;;;;6.05;2.03;;;31.00;29.50;;;;;;5042209;28;20436;-75
2023/04/09 12:13:33;;;;;;;9.85;1.95;;;30.60;29.90;;;;;;5033465;28;20057;-77
2023/04/09 12:16:12;;;;;;;10.07;1.88;;;30.10;29.40;;;;;;5037192;28;20061;-78
2023/04/09 12:18:44;;;;;;;10.18;2.00;;;29.80;30.30;;;;;;5045511;28;20148;-77
2023/04/09 12:21:11;;;;;;;9.73;2.95;;;29.90;30.20;;;;;;5038263;28;20563;-80
2023/04/09 12:23:39;;;;;;;7.47;1.83;;;29.90;30.00;;;;;;5043934;28;20509;-78
2023/04/09 12:26:07;;;;;;;13.90;2.55;;;29.70;29.70;;;;;;5041484;28;20056;-79
2023/04/09 12:28:34;;;;;;;6.00;2.30;;;29.60;29.80;;;;;;5047404;28;20095;-76
2023/04/09 12:31:02;;;;;;;7.63;1.92;;;29.50;29.50;;;;;;5045618;28;20324;-80
2023/04/09 12:33:31;;;;;;;8.82;1.90;;;29.10;30.10;;;;;;5041230;28;20563;-77
2023/04/09 12:35:58;;;;;;;4.68;1.70;;;29.20;29.70;;;;;;5037786;28;20333;-78
2023/04/09 12:38:25;;;;;;;6.53;1.73;;;29.70;29.90;;;;;;5037873;28;20102;-80
2023/04/09 12:40:53;;;;;;;4.93;2.08;;;29.80;29.00;;;;;;5035601;28;20057;-78
2023/04/09 12:43:21;;;;;;;5.53;2.30;;;29.80;29.90;;;;;;5038638;28;20045;-79
2023/04/09 12:45:48;;;;;;;3.53;1.58;;;29.80;29.60;;;;;;5036729;28;20057;-77
2023/04/09 12:48:15;;;;;;;6.13;1.70;;;30.00;29.10;;;;;;5041755;28;20505;-80
2023/04/09 12:50:44;;;;;;;5.70;1.98;;;30.30;28.90;;;;;;5048067;28;20107;-79
2023/04/09 12:53:12;;;;;;;8.98;1.92;;;30.50;29.00;;;;;;5046297;28;20135;-80
2023/04/09 12:55:39;;;;;;;8.00;1.77;;;30.70;28.50;;;;;;5062961;28;20068;-79
2023/04/09 12:58:07;;;;;;;4.93;1.40;;;30.20;28.30;;;;;;5041137;28;20053;-81
2023/04/09 13:00:34;;;;;;;2.55;1.75;;;30.20;28.80;;;;;;5045131;28;20144;-80
2023/04/09 13:03:02;;;;;;;6.38;1.30;;;30.20;28.60;;;;;;5034515;28;20084;-80
2023/04/09 13:05:31;;;;;;;9.55;1.80;;;30.40;28.20;;;;;;5043830;28;20037;-81